createdAt,value
2022-12-23T00:00:34.863Z,9.56
2022-12-23T00:03:22.556Z,9.59
2022-12-23T00:06:10.209Z,9.82
2022-12-23T00:08:57.769Z,10.01
2022-12-23T00:11:45.338Z,9.55
2022-12-23T00:14:32.926Z,9.27
2022-12-23T00:17:22.974Z,9.27
2022-12-23T00:20:10.966Z,9.79
2022-12-23T00:22:58.544Z,9.35
2022-12-23T00:25:46.119Z,9.60
2022-12-23T00:28:33.672Z,9.48
2022-12-23T00:31:21.418Z,9.74
2022-12-23T00:34:09.069Z,10.05
2022-12-23T00:36:56.673Z,10.24
2022-12-23T00:39:44.256Z,9.82
2022-12-23T00:42:32.683Z,9.74
2022-12-23T00:45:20.257Z,9.64
2022-12-23T00:48:07.785Z,10.04
2022-12-23T00:50:55.340Z,10.21
2022-12-23T00:53:42.891Z,10.10
2022-12-23T00:56:30.462Z,9.92
2022-12-23T00:59:18.057Z,10.33
2022-12-23T01:02:05.876Z,10.61
2022-12-23T01:04:53.728Z,10.49
2022-12-23T01:07:41.341Z,10.38
2022-12-23T01:10:28.917Z,10.46
2022-12-23T01:13:16.493Z,10.20
2022-12-23T01:16:04.085Z,10.32
2022-12-23T01:18:51.664Z,10.30
2022-12-23T01:21:39.244Z,10.62
2022-12-23T01:24:26.822Z,10.63
2022-12-23T01:27:16.394Z,10.42
2022-12-23T01:30:03.940Z,10.46
2022-12-23T01:32:51.510Z,10.19
2022-12-23T01:35:39.189Z,10.50
2022-12-23T01:38:26.773Z,10.37
2022-12-23T01:41:14.358Z,10.28
2022-12-23T01:44:01.955Z,10.61
2022-12-23T01:46:49.567Z,10.08
2022-12-23T01:49:37.132Z,10.28
2022-12-23T01:52:24.871Z,10.02
2022-12-23T01:55:12.502Z,9.99
2022-12-23T01:58:00.152Z,10.07
2022-12-23T02:00:47.746Z,10.20
2022-12-23T02:03:35.386Z,10.24
2022-12-23T02:06:22.995Z,10.21
2022-12-23T02:09:10.629Z,10.60
2022-12-23T02:11:58.193Z,10.13
2022-12-23T02:14:45.779Z,10.20
2022-12-23T02:17:33.349Z,10.38
2022-12-23T02:20:20.926Z,10.52
2022-12-23T02:23:08.486Z,10.27
2022-12-23T02:25:56.050Z,10.85
2022-12-23T02:28:43.631Z,10.43
2022-12-23T02:31:31.259Z,10.73
2022-12-23T02:34:18.900Z,10.46
2022-12-23T02:37:06.476Z,10.67
2022-12-23T02:39:54.068Z,10.85
2022-12-23T02:42:41.641Z,11.00
2022-12-23T02:45:29.206Z,11.09
2022-12-23T02:48:16.833Z,11.36
2022-12-23T02:51:04.429Z,11.24
2022-12-23T02:53:52.113Z,11.18
2022-12-23T02:56:39.672Z,10.96
2022-12-23T02:59:27.262Z,11.14
2022-12-23T03:02:14.900Z,10.90
2022-12-23T03:05:02.635Z,10.99
2022-12-23T03:07:50.236Z,10.88
2022-12-23T03:10:37.798Z,10.68
2022-12-23T03:13:25.383Z,10.36
2022-12-23T03:16:13.154Z,10.35
2022-12-23T03:19:02.749Z,10.76
2022-12-23T03:21:50.331Z,10.76
2022-12-23T03:24:37.893Z,10.98
2022-12-23T03:27:25.457Z,10.96
2022-12-23T03:30:12.989Z,10.74
2022-12-23T03:33:02.543Z,11.10
2022-12-23T03:35:50.100Z,11.41
2022-12-23T03:38:37.619Z,11.62
2022-12-23T03:41:25.160Z,11.47
2022-12-23T03:44:12.784Z,11.18
2022-12-23T03:47:00.348Z,11.22
2022-12-23T03:49:47.949Z,11.45
2022-12-23T03:52:35.522Z,11.54
2022-12-23T03:55:23.115Z,11.56
2022-12-23T03:58:10.681Z,11.45
2022-12-23T04:00:58.986Z,11.58
2022-12-23T04:03:46.642Z,11.86
2022-12-23T04:06:34.223Z,11.76
2022-12-23T04:09:22.526Z,12.09
2022-12-23T04:12:10.289Z,12.25
2022-12-23T04:15:16.177Z,11.78
2022-12-23T04:18:05.023Z,11.43
2022-12-23T04:21:05.046Z,11.24
2022-12-23T04:23:52.625Z,11.01
2022-12-23T04:26:40.217Z,11.45
2022-12-23T04:29:27.814Z,11.15
2022-12-23T04:32:15.381Z,11.44
2022-12-23T04:35:02.989Z,11.43
2022-12-23T04:37:50.550Z,11.53
2022-12-23T04:40:38.153Z,11.20
2022-12-23T04:43:25.704Z,11.60
2022-12-23T04:46:13.356Z,12.01
2022-12-23T04:49:00.945Z,11.57
2022-12-23T04:51:48.603Z,11.61
2022-12-23T04:54:40.521Z,11.76
2022-12-23T04:57:31.607Z,11.71
2022-12-23T05:00:19.196Z,11.69
2022-12-23T05:03:06.986Z,11.80
2022-12-23T05:05:54.618Z,11.70
2022-12-23T05:08:42.193Z,11.37
2022-12-23T05:11:29.760Z,11.49
2022-12-23T05:14:17.345Z,11.61
2022-12-23T05:17:07.772Z,11.55
2022-12-23T05:19:55.697Z,11.96
2022-12-23T05:22:43.264Z,11.65
2022-12-23T05:25:30.813Z,11.59
2022-12-23T05:28:18.381Z,11.86
2022-12-23T05:31:06.004Z,12.15
2022-12-23T05:33:53.637Z,12.12
2022-12-23T05:36:41.295Z,11.48
2022-12-23T05:39:28.857Z,11.63
2022-12-23T05:42:16.460Z,11.34
2022-12-23T05:45:04.019Z,11.23
2022-12-23T05:47:51.585Z,11.46
2022-12-23T05:50:39.651Z,11.64
2022-12-23T05:53:27.254Z,11.73
2022-12-23T05:56:14.832Z,11.39
2022-12-23T05:59:02.499Z,11.61
2022-12-23T06:01:52.143Z,11.73
2022-12-23T06:04:39.758Z,11.61
2022-12-23T06:07:27.308Z,11.61
2022-12-23T06:10:14.888Z,11.99
2022-12-23T06:13:02.466Z,11.68
2022-12-23T06:15:50.055Z,11.79
2022-12-23T06:18:37.612Z,11.69
2022-12-23T06:21:25.151Z,11.51
2022-12-23T06:24:12.714Z,11.57
2022-12-23T06:27:00.293Z,11.54
2022-12-23T06:29:47.971Z,11.35
2022-12-23T06:32:38.654Z,11.78
2022-12-23T06:35:26.615Z,11.63
2022-12-23T06:38:14.175Z,11.50
2022-12-23T06:41:01.801Z,11.65
2022-12-23T06:43:54.037Z,11.84
2022-12-23T06:46:41.769Z,11.61
2022-12-23T06:49:29.335Z,12.03
2022-12-23T06:52:16.909Z,12.03
2022-12-23T06:55:04.508Z,12.05
2022-12-23T06:57:52.099Z,12.18
2022-12-23T07:00:39.667Z,12.20
2022-12-23T07:03:27.249Z,12.16
2022-12-23T07:06:14.811Z,11.71
2022-12-23T07:09:02.398Z,11.96
2022-12-23T07:11:49.930Z,11.89
2022-12-23T07:14:37.511Z,11.75
2022-12-23T07:17:25.073Z,12.06
2022-12-23T07:20:12.640Z,12.04
2022-12-23T07:23:00.197Z,11.91
2022-12-23T07:25:47.805Z,12.06
2022-12-23T07:28:35.425Z,12.30
2022-12-23T07:31:23.088Z,12.21
2022-12-23T07:34:10.724Z,12.36
2022-12-23T07:36:58.305Z,12.05
2022-12-23T07:39:45.863Z,12.36
2022-12-23T07:42:44.814Z,12.38
2022-12-23T07:45:33.959Z,12.45
2022-12-23T07:48:21.539Z,12.22
2022-12-23T07:51:09.106Z,11.90
2022-12-23T07:53:56.693Z,12.16
2022-12-23T07:56:44.266Z,11.77
2022-12-23T07:59:31.856Z,11.97
2022-12-23T08:02:19.660Z,11.77
2022-12-23T08:05:07.453Z,12.17
2022-12-23T08:07:55.031Z,11.97
2022-12-23T08:10:48.007Z,12.00
2022-12-23T08:13:36.173Z,11.73
2022-12-23T08:16:23.835Z,11.63
2022-12-23T08:19:11.453Z,11.71
2022-12-23T08:21:59.087Z,11.72
2022-12-23T08:24:46.669Z,11.71
2022-12-23T08:27:34.241Z,11.23
2022-12-23T08:30:21.839Z,11.70
2022-12-23T08:33:18.445Z,11.45
2022-12-23T08:36:06.028Z,11.46
2022-12-23T08:38:53.621Z,11.77
2022-12-23T08:41:41.198Z,11.73
2022-12-23T08:44:28.796Z,11.67
2022-12-23T08:47:16.352Z,11.51
2022-12-23T08:50:03.965Z,11.50
2022-12-23T08:52:51.549Z,11.42
2022-12-23T08:55:39.814Z,11.74
2022-12-23T08:58:27.399Z,11.77
2022-12-23T09:01:15.034Z,11.82
2022-12-23T09:04:02.662Z,11.59
2022-12-23T09:06:50.337Z,11.43
2022-12-23T09:09:37.871Z,11.89
2022-12-23T09:12:25.433Z,11.97
2022-12-23T09:15:13.220Z,11.80
2022-12-23T09:18:00.869Z,12.02
2022-12-23T09:20:48.447Z,12.15
2022-12-23T09:23:36.016Z,11.99
2022-12-23T09:26:23.583Z,11.82
2022-12-23T09:29:11.199Z,12.06
2022-12-23T09:31:58.771Z,11.64
2022-12-23T09:34:46.428Z,11.69
2022-12-23T09:37:33.989Z,11.61
2022-12-23T09:40:21.608Z,11.56
2022-12-23T09:43:09.161Z,11.35
2022-12-23T09:45:56.770Z,11.61
2022-12-23T09:48:44.401Z,11.73
2022-12-23T09:51:31.993Z,11.65
2022-12-23T09:54:19.565Z,11.89
2022-12-23T09:57:07.141Z,11.49
2022-12-23T09:59:54.726Z,11.78
2022-12-23T10:02:42.541Z,11.56
2022-12-23T10:05:30.186Z,11.66
2022-12-23T10:08:17.794Z,11.80
2022-12-23T10:11:05.346Z,11.90
2022-12-23T10:13:52.917Z,11.74
2022-12-23T10:16:40.640Z,11.79
2022-12-23T10:19:28.302Z,12.25
2022-12-23T10:22:15.877Z,12.07
2022-12-23T10:25:05.661Z,12.36
2022-12-23T10:27:53.222Z,12.04
2022-12-23T10:33:48.344Z,12.26
2022-12-23T10:36:35.999Z,12.38
2022-12-23T10:39:24.286Z,12.48
2022-12-23T10:42:11.861Z,12.40
2022-12-23T10:44:59.469Z,12.22
2022-12-23T10:47:47.181Z,12.34
2022-12-23T10:50:37.593Z,12.29
2022-12-23T10:53:25.222Z,11.98
2022-12-23T10:56:12.796Z,12.23
2022-12-23T10:59:00.415Z,12.49
2022-12-23T11:01:48.176Z,12.32
2022-12-23T11:04:36.023Z,12.55
2022-12-23T11:07:44.283Z,12.18
2022-12-23T11:10:32.054Z,12.43
2022-12-23T11:13:19.653Z,11.93
2022-12-23T11:16:07.280Z,11.55
2022-12-23T11:18:55.038Z,11.62
2022-12-23T11:21:42.612Z,11.98
2022-12-23T11:24:30.231Z,12.01
2022-12-23T11:27:17.851Z,12.13
2022-12-23T11:30:05.546Z,12.07
2022-12-23T11:32:53.141Z,12.25
2022-12-23T11:35:40.838Z,12.14
2022-12-23T11:38:28.882Z,12.04
2022-12-23T11:41:16.436Z,11.87
2022-12-23T11:44:04.024Z,11.72
2022-12-23T11:46:51.630Z,11.91
2022-12-23T11:49:40.345Z,12.21
2022-12-23T11:52:30.777Z,11.85
2022-12-23T11:55:18.456Z,11.96
2022-12-23T11:58:06.005Z,11.80
2022-12-23T12:00:55.863Z,12.02
2022-12-23T12:03:43.936Z,11.74
2022-12-23T12:06:31.581Z,11.75
2022-12-23T12:09:19.133Z,11.50
2022-12-23T12:12:06.706Z,11.78
2022-12-23T12:14:54.279Z,11.63
2022-12-23T12:17:43.976Z,11.89
2022-12-23T12:20:31.528Z,11.87
2022-12-23T12:23:19.114Z,11.91
2022-12-23T12:26:06.683Z,11.83
2022-12-23T12:28:54.273Z,11.56
2022-12-23T12:31:41.876Z,11.84
2022-12-23T12:34:29.475Z,11.64
2022-12-23T12:37:17.022Z,11.58
2022-12-23T12:40:04.603Z,11.41
2022-12-23T12:42:52.177Z,11.40
2022-12-23T12:45:39.846Z,11.72
2022-12-23T12:48:27.466Z,11.41
2022-12-23T12:51:15.058Z,11.88
2022-12-23T12:54:05.570Z,11.90
2022-12-23T12:56:53.699Z,11.98
2022-12-23T12:59:41.303Z,11.75
2022-12-23T13:02:29.017Z,12.05
2022-12-23T13:05:16.596Z,11.88
2022-12-23T13:08:04.224Z,11.96
2022-12-23T13:10:51.807Z,11.88
2022-12-23T13:13:39.388Z,11.99
2022-12-23T13:16:28.975Z,11.49
2022-12-23T13:19:16.610Z,11.65
2022-12-23T13:22:04.319Z,11.85
2022-12-23T13:24:51.878Z,11.75
2022-12-23T13:27:42.232Z,11.92
2022-12-23T13:30:29.781Z,12.00
2022-12-23T13:33:17.413Z,12.01
2022-12-23T13:36:06.424Z,12.16
2022-12-23T13:38:54.338Z,12.28
2022-12-23T13:41:41.929Z,12.41
2022-12-23T13:44:29.522Z,12.22
2022-12-23T13:47:17.082Z,12.27
2022-12-23T13:50:04.645Z,12.32
2022-12-23T13:52:52.302Z,12.26
2022-12-23T13:55:39.859Z,12.28
2022-12-23T13:58:27.415Z,12.00
2022-12-23T14:01:15.024Z,12.00
2022-12-23T14:04:02.713Z,11.85
2022-12-23T14:06:50.965Z,12.20
2022-12-23T14:09:38.554Z,11.87
2022-12-23T14:12:26.134Z,12.22
2022-12-23T14:15:13.697Z,12.38
2022-12-23T14:18:04.571Z,12.25
2022-12-23T14:20:52.555Z,12.21
2022-12-23T14:23:40.133Z,12.13
2022-12-23T14:26:27.789Z,12.34
2022-12-23T14:29:15.357Z,12.22
2022-12-23T14:32:02.954Z,12.41
2022-12-23T14:34:50.552Z,12.23
2022-12-23T14:37:38.131Z,11.90
2022-12-23T14:40:25.699Z,11.85
2022-12-23T14:43:13.307Z,12.28
2022-12-23T14:46:01.015Z,12.20
2022-12-23T14:48:48.681Z,12.17
2022-12-23T14:51:36.310Z,12.01
2022-12-23T14:54:23.894Z,12.13
2022-12-23T14:57:11.480Z,12.25
2022-12-23T14:59:59.059Z,12.16
2022-12-23T15:02:46.664Z,11.90
2022-12-23T15:05:34.323Z,12.15
2022-12-23T15:08:21.959Z,12.33
2022-12-23T15:11:09.546Z,12.19
2022-12-23T15:13:57.137Z,11.97
2022-12-23T15:16:44.946Z,12.14
2022-12-23T15:19:32.911Z,12.25
2022-12-23T15:22:25.667Z,12.45
2022-12-23T15:25:19.592Z,12.27
2022-12-23T15:28:07.165Z,12.03
2022-12-23T15:30:54.788Z,12.16
2022-12-23T15:36:49.999Z,11.96
2022-12-23T15:39:37.607Z,12.15
2022-12-23T15:42:25.206Z,12.32
2022-12-23T15:45:12.797Z,12.11
2022-12-23T15:48:00.410Z,12.17
2022-12-23T15:50:47.970Z,12.33
2022-12-23T15:53:35.853Z,12.42
2022-12-23T15:56:23.427Z,12.01
2022-12-23T15:59:11.019Z,12.02
2022-12-23T16:01:58.654Z,11.88
2022-12-23T16:04:46.358Z,11.83
2022-12-23T16:07:33.951Z,12.09
2022-12-23T16:10:21.570Z,12.22
2022-12-23T16:13:09.157Z,12.48
2022-12-23T16:15:56.785Z,12.72
2022-12-23T16:18:47.646Z,12.47
2022-12-23T16:21:35.699Z,12.32
2022-12-23T16:24:25.305Z,11.96
2022-12-23T16:27:12.877Z,12.45
2022-12-23T16:30:00.503Z,12.17
2022-12-23T16:32:48.071Z,12.07
2022-12-23T16:35:35.890Z,11.85
2022-12-23T16:38:23.522Z,12.14
2022-12-23T16:41:11.132Z,12.41
2022-12-23T16:43:58.710Z,12.09
2022-12-23T16:46:46.282Z,12.41
2022-12-23T16:49:34.350Z,12.47
2022-12-23T16:52:21.975Z,12.06
2022-12-23T16:55:09.567Z,12.27
2022-12-23T16:57:57.147Z,12.28
2022-12-23T17:00:44.769Z,12.27
2022-12-23T17:03:32.403Z,12.37
2022-12-23T17:06:19.983Z,12.35
2022-12-23T17:09:07.584Z,12.10
2022-12-23T17:11:55.175Z,12.05
2022-12-23T17:14:42.778Z,12.10
2022-12-23T17:17:30.358Z,12.34
2022-12-23T17:20:17.920Z,12.33
2022-12-23T17:23:05.524Z,12.66
2022-12-23T17:25:53.683Z,12.24
2022-12-23T17:28:41.280Z,12.15
2022-12-23T17:31:29.362Z,12.20
2022-12-23T17:34:17.015Z,12.26
2022-12-23T17:37:07.229Z,12.15
2022-12-23T17:39:54.855Z,11.81
2022-12-23T17:42:42.471Z,11.63
2022-12-23T17:45:30.151Z,12.13
2022-12-23T17:48:22.167Z,12.08
2022-12-23T17:51:11.782Z,12.06
2022-12-23T17:53:59.393Z,12.12
2022-12-23T17:56:47.007Z,11.63
2022-12-23T17:59:34.625Z,11.20
2022-12-23T18:02:22.332Z,10.88
2022-12-23T18:05:10.201Z,10.85
2022-12-23T18:07:57.773Z,10.99
2022-12-23T18:10:48.406Z,10.95
2022-12-23T18:13:35.962Z,11.14
2022-12-23T18:16:23.645Z,11.36
2022-12-23T18:19:11.258Z,11.53
2022-12-23T18:21:58.828Z,11.24
2022-12-23T18:24:46.399Z,11.85
2022-12-23T18:27:33.997Z,11.62
2022-12-23T18:30:21.628Z,11.94
2022-12-23T18:33:09.203Z,11.82
2022-12-23T18:35:56.848Z,11.57
2022-12-23T18:38:44.509Z,11.91
2022-12-23T18:41:32.104Z,11.87
2022-12-23T18:44:19.674Z,11.86
2022-12-23T18:47:07.253Z,12.26
2022-12-23T18:49:54.865Z,12.22
2022-12-23T18:52:42.476Z,12.29
2022-12-23T18:55:32.096Z,12.33
2022-12-23T18:58:19.663Z,12.18
2022-12-23T19:01:07.261Z,11.83
2022-12-23T19:03:54.878Z,11.81
2022-12-23T19:06:42.466Z,11.90
2022-12-23T19:09:30.199Z,11.99
2022-12-23T19:12:17.764Z,11.84
2022-12-23T19:15:05.345Z,11.80
2022-12-23T19:17:52.901Z,11.41
2022-12-23T19:20:40.518Z,11.51
2022-12-23T19:23:28.117Z,11.37
2022-12-23T19:26:15.786Z,11.58
2022-12-23T19:29:05.368Z,11.89
2022-12-23T19:31:52.966Z,11.67
2022-12-23T19:34:40.500Z,12.07
2022-12-23T19:37:28.132Z,12.36
2022-12-23T19:40:15.708Z,12.13
2022-12-23T19:43:03.357Z,12.09
2022-12-23T19:45:50.983Z,12.05
2022-12-23T19:48:38.698Z,11.86
2022-12-23T19:51:28.271Z,11.77
2022-12-23T19:54:17.876Z,11.79
2022-12-23T19:57:05.468Z,12.02
2022-12-23T19:59:53.048Z,12.02
2022-12-23T20:02:40.638Z,12.23
2022-12-23T20:05:29.405Z,12.32
2022-12-23T20:08:16.972Z,12.74
2022-12-23T20:11:04.556Z,12.39
2022-12-23T20:13:52.136Z,12.62
2022-12-23T20:16:40.413Z,12.33
2022-12-23T20:19:27.973Z,12.55
2022-12-23T20:22:15.559Z,12.59
2022-12-23T20:25:03.103Z,12.59
2022-12-23T20:27:50.678Z,12.32
2022-12-23T20:30:38.290Z,12.47
2022-12-23T20:33:25.842Z,12.06
2022-12-23T20:36:13.507Z,12.22
2022-12-23T20:39:01.077Z,12.39
2022-12-23T20:41:48.697Z,12.41
2022-12-23T20:44:37.435Z,12.07
2022-12-23T20:47:25.370Z,12.14
2022-12-23T20:50:12.912Z,12.01
2022-12-23T20:53:00.470Z,12.30
2022-12-23T20:55:48.043Z,11.88
2022-12-23T20:58:35.615Z,11.91
2022-12-23T21:01:23.217Z,12.09
2022-12-23T21:04:10.775Z,12.15
2022-12-23T21:06:58.338Z,12.35
2022-12-23T21:09:45.871Z,12.44
2022-12-23T21:12:34.111Z,12.53
2022-12-23T21:15:21.663Z,12.60
2022-12-23T21:18:09.241Z,12.47
2022-12-23T21:20:56.853Z,12.73
2022-12-23T21:23:44.464Z,12.95
2022-12-23T21:26:32.029Z,13.39
2022-12-23T21:29:19.599Z,12.99
2022-12-23T21:32:07.147Z,12.76
2022-12-23T21:34:54.768Z,12.64
2022-12-23T21:37:42.334Z,11.95
2022-12-23T21:40:29.906Z,12.59
2022-12-23T21:43:17.493Z,12.73
2022-12-23T21:46:05.065Z,12.84
2022-12-23T21:48:52.609Z,13.22
2022-12-23T21:51:41.564Z,12.96
2022-12-23T21:54:29.578Z,12.85
2022-12-23T21:57:17.180Z,12.91
2022-12-23T22:00:06.759Z,12.64
2022-12-23T22:02:54.349Z,12.71
2022-12-23T22:05:41.926Z,12.73
2022-12-23T22:08:29.472Z,12.61
2022-12-23T22:11:17.057Z,12.87
2022-12-23T22:14:04.616Z,12.84
2022-12-23T22:16:52.290Z,12.77
2022-12-23T22:19:39.886Z,13.07
2022-12-23T22:22:29.453Z,13.01
2022-12-23T22:25:17.026Z,13.03
2022-12-23T22:28:04.619Z,12.84
2022-12-23T22:30:52.179Z,13.13
2022-12-23T22:33:39.763Z,12.74
2022-12-23T22:36:27.398Z,12.27
2022-12-23T22:39:19.998Z,12.60
2022-12-23T22:42:08.853Z,12.73
2022-12-23T22:44:56.460Z,12.94
2022-12-23T22:47:44.060Z,12.89
2022-12-23T22:50:31.825Z,12.85
2022-12-23T22:53:24.917Z,12.89
2022-12-23T22:56:17.093Z,12.32
2022-12-23T22:59:04.631Z,12.54
2022-12-23T23:01:52.238Z,12.45
2022-12-23T23:04:39.813Z,12.42
2022-12-23T23:07:27.381Z,12.58
2022-12-23T23:10:14.965Z,12.75
2022-12-23T23:13:02.542Z,12.24
2022-12-23T23:15:50.094Z,12.62
2022-12-23T23:18:37.688Z,12.66
2022-12-23T23:21:25.258Z,12.93
2022-12-23T23:24:12.833Z,12.86
2022-12-23T23:27:00.395Z,12.66
2022-12-23T23:29:47.963Z,12.62
2022-12-23T23:32:35.588Z,12.50
2022-12-23T23:35:23.254Z,12.42
2022-12-23T23:38:10.907Z,12.00
2022-12-23T23:40:58.483Z,11.87
2022-12-23T23:43:46.060Z,11.87
2022-12-23T23:46:33.739Z,11.69
2022-12-23T23:49:21.405Z,11.95
2022-12-23T23:52:09.073Z,11.79
2022-12-23T23:54:56.656Z,11.72
2022-12-23T23:57:44.258Z,11.66
